Terminal Aerodrome Forecast
Issued by NWS Buffalo, NY

Home | Current Version | Previous Version | Text Only | Print | Product List | Glossary On
Versions: 1 2 3 4 5 6 7 8 9 10 11 12 13 14 15 16 17 18 19 20 21 22 23 24 25 26 27 28 29
000
FTUS41 KBUF 300600 AAA
TAFBUF
TAF AMD
KBUF 300616Z 3006/3106 28012KT P6SM -FZDZSN SCT007 OVC015
      TEMPO 3006/3008 BKN007
     FM301000 31014G20KT P6SM VCSH SCT007 OVC015
     FM301400 31015G22KT 4SM -SHSN SCT007 OVC015
     FM301800 30015G21KT P6SM VCSH OVC025
     FM302200 30014G20KT P6SM SCT035 BKN070
     FM310100 29012KT P6SM BKN200=

USA.gov is the U.S. government's official web portal to all federal, state and local government web resources and services.